sensor_id;sensor_type;location;lat;lon;timestamp;P1;durP1;ratioP1;P2;durP2;ratioP2
37847;SDS011;23688;33.130;-117.188;2023-04-29T00:01:22;10.38;;;4.10;;
37847;SDS011;23688;33.130;-117.188;2023-04-29T00:03:49;9.93;;;4.10;;
37847;SDS011;23688;33.130;-117.188;2023-04-29T00:06:15;13.93;;;4.88;;
37847;SDS011;23688;33.130;-117.188;2023-04-29T00:08:42;9.52;;;5.00;;
37847;SDS011;23688;33.130;-117.188;2023-04-29T00:11:08;9.27;;;4.93;;
37847;SDS011;23688;33.130;-117.188;2023-04-29T00:13:36;8.82;;;4.63;;
37847;SDS011;23688;33.130;-117.188;2023-04-29T00:16:05;11.68;;;5.05;;
37847;SDS011;23688;33.130;-117.188;2023-04-29T00:18:32;9.80;;;4.97;;
37847;SDS011;23688;33.130;-117.188;2023-04-29T00:20:59;13.05;;;5.75;;
37847;SDS011;23688;33.130;-117.188;2023-04-29T00:23:25;15.77;;;5.57;;
37847;SDS011;23688;33.130;-117.188;2023-04-29T00:25:55;14.77;;;5.72;;
37847;SDS011;23688;33.130;-117.188;2023-04-29T00:28:22;14.15;;;5.50;;
37847;SDS011;23688;33.130;-117.188;2023-04-29T00:30:48;15.82;;;5.28;;
37847;SDS011;23688;33.130;-117.188;2023-04-29T00:33:14;14.63;;;5.55;;
37847;SDS011;23688;33.130;-117.188;2023-04-29T00:35:41;17.75;;;5.13;;
37847;SDS011;23688;33.130;-117.188;2023-04-29T00:38:07;12.88;;;5.03;;
37847;SDS011;23688;33.130;-117.188;2023-04-29T00:40:33;16.95;;;6.22;;
37847;SDS011;23688;33.130;-117.188;2023-04-29T00:43:03;15.48;;;5.10;;
37847;SDS011;23688;33.130;-117.188;2023-04-29T00:45:30;14.68;;;5.70;;
37847;SDS011;23688;33.130;-117.188;2023-04-29T00:47:56;14.70;;;5.43;;
37847;SDS011;23688;33.130;-117.188;2023-04-29T00:50:22;13.57;;;5.93;;
37847;SDS011;23688;33.130;-117.188;2023-04-29T00:52:49;13.65;;;5.25;;
37847;SDS011;23688;33.130;-117.188;2023-04-29T00:55:17;12.57;;;5.93;;
37847;SDS011;23688;33.130;-117.188;2023-04-29T00:57:44;15.43;;;5.18;;
37847;SDS011;23688;33.130;-117.188;2023-04-29T01:00:12;12.10;;;5.60;;
37847;SDS011;23688;33.130;-117.188;2023-04-29T01:02:40;11.50;;;5.40;;
37847;SDS011;23688;33.130;-117.188;2023-04-29T01:05:07;12.98;;;5.47;;
37847;SDS011;23688;33.130;-117.188;2023-04-29T01:07:36;14.23;;;4.63;;
37847;SDS011;23688;33.130;-117.188;2023-04-29T01:12:53;11.07;;;4.57;;
37847;SDS011;23688;33.130;-117.188;2023-04-29T01:18:28;14.77;;;5.68;;
37847;SDS011;23688;33.130;-117.188;2023-04-29T01:21:06;18.60;;;6.10;;
37847;SDS011;23688;33.130;-117.188;2023-04-29T01:23:33;12.50;;;5.65;;
37847;SDS011;23688;33.130;-117.188;2023-04-29T01:25:59;9.57;;;5.25;;
37847;SDS011;23688;33.130;-117.188;2023-04-29T01:31:55;17.10;;;5.60;;
37847;SDS011;23688;33.130;-117.188;2023-04-29T01:42:44;14.43;;;5.45;;
37847;SDS011;23688;33.130;-117.188;2023-04-29T01:45:16;14.88;;;5.72;;
37847;SDS011;23688;33.130;-117.188;2023-04-29T01:47:45;17.23;;;7.43;;
37847;SDS011;23688;33.130;-117.188;2023-04-29T01:50:13;14.75;;;5.30;;
37847;SDS011;23688;33.130;-117.188;2023-04-29T01:52:39;14.60;;;5.55;;
37847;SDS011;23688;33.130;-117.188;2023-04-29T01:55:06;14.57;;;5.57;;
37847;SDS011;23688;33.130;-117.188;2023-04-29T01:57:32;11.45;;;5.22;;
37847;SDS011;23688;33.130;-117.188;2023-04-29T01:59:59;16.52;;;5.82;;
37847;SDS011;23688;33.130;-117.188;2023-04-29T02:02:26;21.92;;;7.03;;
37847;SDS011;23688;33.130;-117.188;2023-04-29T02:04:52;13.88;;;6.00;;
37847;SDS011;23688;33.130;-117.188;2023-04-29T02:07:21;16.20;;;6.20;;
37847;SDS011;23688;33.130;-117.188;2023-04-29T02:09:48;14.07;;;6.15;;
37847;SDS011;23688;33.130;-117.188;2023-04-29T02:12:14;14.23;;;6.05;;
37847;SDS011;23688;33.130;-117.188;2023-04-29T02:14:40;17.55;;;6.22;;
37847;SDS011;23688;33.130;-117.188;2023-04-29T02:17:07;17.60;;;6.28;;
37847;SDS011;23688;33.130;-117.188;2023-04-29T02:19:33;23.08;;;7.30;;
37847;SDS011;23688;33.130;-117.188;2023-04-29T02:22:00;15.15;;;6.00;;
37847;SDS011;23688;33.130;-117.188;2023-04-29T02:24:26;12.57;;;6.00;;
37847;SDS011;23688;33.130;-117.188;2023-04-29T02:26:52;16.95;;;6.50;;
37847;SDS011;23688;33.130;-117.188;2023-04-29T02:29:19;22.67;;;6.10;;
37847;SDS011;23688;33.130;-117.188;2023-04-29T02:31:46;20.45;;;7.13;;
37847;SDS011;23688;33.130;-117.188;2023-04-29T02:34:12;15.65;;;7.05;;
37847;SDS011;23688;33.130;-117.188;2023-04-29T02:36:38;14.18;;;6.50;;
37847;SDS011;23688;33.130;-117.188;2023-04-29T02:39:04;20.35;;;6.97;;
37847;SDS011;23688;33.130;-117.188;2023-04-29T02:41:31;21.17;;;7.32;;
37847;SDS011;23688;33.130;-117.188;2023-04-29T02:43:57;17.95;;;7.55;;
37847;SDS011;23688;33.130;-117.188;2023-04-29T02:46:24;21.05;;;7.18;;
37847;SDS011;23688;33.130;-117.188;2023-04-29T02:48:50;21.38;;;7.10;;
37847;SDS011;23688;33.130;-117.188;2023-04-29T02:51:17;18.85;;;6.55;;
37847;SDS011;23688;33.130;-117.188;2023-04-29T02:53:44;22.25;;;7.53;;
37847;SDS011;23688;33.130;-117.188;2023-04-29T02:56:10;16.15;;;6.95;;
37847;SDS011;23688;33.130;-117.188;2023-04-29T02:58:36;17.70;;;7.10;;
37847;SDS011;23688;33.130;-117.188;2023-04-29T03:01:03;14.80;;;7.28;;
37847;SDS011;23688;33.130;-117.188;2023-04-29T03:03:29;16.48;;;7.55;;
37847;SDS011;23688;33.130;-117.188;2023-04-29T03:05:55;18.85;;;7.07;;
37847;SDS011;23688;33.130;-117.188;2023-04-29T03:08:22;16.60;;;7.20;;
37847;SDS011;23688;33.130;-117.188;2023-04-29T03:10:48;15.00;;;7.18;;
37847;SDS011;23688;33.130;-117.188;2023-04-29T03:13:15;18.80;;;7.82;;
37847;SDS011;23688;33.130;-117.188;2023-04-29T03:15:41;23.48;;;8.10;;
37847;SDS011;23688;33.130;-117.188;2023-04-29T03:18:08;16.70;;;7.35;;
37847;SDS011;23688;33.130;-117.188;2023-04-29T03:20:34;21.30;;;7.63;;
37847;SDS011;23688;33.130;-117.188;2023-04-29T03:23:01;16.83;;;7.32;;
37847;SDS011;23688;33.130;-117.188;2023-04-29T03:25:27;20.48;;;8.05;;
37847;SDS011;23688;33.130;-117.188;2023-04-29T03:27:54;20.65;;;8.30;;
37847;SDS011;23688;33.130;-117.188;2023-04-29T03:30:21;25.05;;;8.50;;
37847;SDS011;23688;33.130;-117.188;2023-04-29T03:32:50;25.05;;;8.27;;
37847;SDS011;23688;33.130;-117.188;2023-04-29T03:35:16;23.75;;;8.25;;
37847;SDS011;23688;33.130;-117.188;2023-04-29T03:37:42;18.55;;;8.45;;
37847;SDS011;23688;33.130;-117.188;2023-04-29T03:40:08;14.35;;;7.75;;
37847;SDS011;23688;33.130;-117.188;2023-04-29T03:42:36;20.55;;;9.40;;
37847;SDS011;23688;33.130;-117.188;2023-04-29T03:45:02;29.45;;;9.07;;
37847;SDS011;23688;33.130;-117.188;2023-04-29T03:47:30;18.83;;;9.02;;
37847;SDS011;23688;33.130;-117.188;2023-04-29T03:49:56;16.92;;;7.90;;
37847;SDS011;23688;33.130;-117.188;2023-04-29T03:52:23;17.88;;;8.13;;
37847;SDS011;23688;33.130;-117.188;2023-04-29T03:54:50;21.33;;;9.25;;
37847;SDS011;23688;33.130;-117.188;2023-04-29T03:57:17;21.65;;;8.07;;
37847;SDS011;23688;33.130;-117.188;2023-04-29T03:59:43;24.73;;;8.55;;
37847;SDS011;23688;33.130;-117.188;2023-04-29T04:02:15;29.38;;;9.88;;
37847;SDS011;23688;33.130;-117.188;2023-04-29T04:04:41;22.15;;;8.68;;
37847;SDS011;23688;33.130;-117.188;2023-04-29T04:07:08;27.15;;;10.43;;
37847;SDS011;23688;33.130;-117.188;2023-04-29T04:09:34;29.27;;;9.95;;
37847;SDS011;23688;33.130;-117.188;2023-04-29T04:12:00;22.60;;;9.45;;
37847;SDS011;23688;33.130;-117.188;2023-04-29T04:14:26;23.73;;;9.45;;
37847;SDS011;23688;33.130;-117.188;2023-04-29T04:16:53;26.05;;;9.50;;
37847;SDS011;23688;33.130;-117.188;2023-04-29T04:19:19;24.35;;;9.63;;
37847;SDS011;23688;33.130;-117.188;2023-04-29T04:21:45;34.88;;;9.80;;
37847;SDS011;23688;33.130;-117.188;2023-04-29T04:24:12;25.42;;;8.90;;
37847;SDS011;23688;33.130;-117.188;2023-04-29T04:26:38;20.17;;;7.85;;
37847;SDS011;23688;33.130;-117.188;2023-04-29T04:29:05;28.98;;;9.07;;
37847;SDS011;23688;33.130;-117.188;2023-04-29T04:31:32;32.42;;;8.48;;
37847;SDS011;23688;33.130;-117.188;2023-04-29T04:33:58;22.02;;;8.65;;
37847;SDS011;23688;33.130;-117.188;2023-04-29T04:36:25;23.42;;;8.63;;
37847;SDS011;23688;33.130;-117.188;2023-04-29T04:38:51;22.25;;;9.20;;
37847;SDS011;23688;33.130;-117.188;2023-04-29T04:41:17;27.58;;;9.25;;
37847;SDS011;23688;33.130;-117.188;2023-04-29T04:43:46;28.17;;;10.32;;
37847;SDS011;23688;33.130;-117.188;2023-04-29T04:48:40;21.52;;;8.05;;
37847;SDS011;23688;33.130;-117.188;2023-04-29T04:51:09;24.20;;;9.35;;
37847;SDS011;23688;33.130;-117.188;2023-04-29T04:53:37;31.00;;;9.77;;
37847;SDS011;23688;33.130;-117.188;2023-04-29T04:56:04;20.40;;;8.18;;
37847;SDS011;23688;33.130;-117.188;2023-04-29T04:58:31;20.75;;;9.13;;
37847;SDS011;23688;33.130;-117.188;2023-04-29T05:00:58;28.58;;;9.50;;
37847;SDS011;23688;33.130;-117.188;2023-04-29T05:03:25;28.23;;;10.02;;
37847;SDS011;23688;33.130;-117.188;2023-04-29T05:05:52;18.27;;;8.68;;
37847;SDS011;23688;33.130;-117.188;2023-04-29T05:08:21;32.88;;;9.75;;
37847;SDS011;23688;33.130;-117.188;2023-04-29T05:10:48;30.48;;;8.48;;
37847;SDS011;23688;33.130;-117.188;2023-04-29T05:13:14;27.98;;;8.32;;
37847;SDS011;23688;33.130;-117.188;2023-04-29T05:15:41;24.08;;;8.73;;
37847;SDS011;23688;33.130;-117.188;2023-04-29T05:18:07;19.52;;;8.43;;
37847;SDS011;23688;33.130;-117.188;2023-04-29T05:20:34;29.65;;;9.07;;
37847;SDS011;23688;33.130;-117.188;2023-04-29T05:23:01;20.67;;;8.35;;
37847;SDS011;23688;33.130;-117.188;2023-04-29T05:25:28;22.13;;;7.93;;
37847;SDS011;23688;33.130;-117.188;2023-04-29T05:27:55;22.42;;;9.23;;
37847;SDS011;23688;33.130;-117.188;2023-04-29T05:30:21;16.50;;;9.00;;
37847;SDS011;23688;33.130;-117.188;2023-04-29T05:32:47;21.25;;;9.02;;
37847;SDS011;23688;33.130;-117.188;2023-04-29T05:35:14;19.10;;;8.75;;
37847;SDS011;23688;33.130;-117.188;2023-04-29T05:37:40;21.92;;;9.25;;
37847;SDS011;23688;33.130;-117.188;2023-04-29T05:40:07;18.73;;;9.00;;
37847;SDS011;23688;33.130;-117.188;2023-04-29T05:42:34;21.27;;;9.10;;
37847;SDS011;23688;33.130;-117.188;2023-04-29T05:45:00;19.40;;;8.55;;
37847;SDS011;23688;33.130;-117.188;2023-04-29T05:47:26;22.05;;;9.77;;
37847;SDS011;23688;33.130;-117.188;2023-04-29T05:49:53;20.90;;;7.40;;
37847;SDS011;23688;33.130;-117.188;2023-04-29T05:52:19;26.45;;;10.13;;
37847;SDS011;23688;33.130;-117.188;2023-04-29T05:54:46;22.17;;;10.45;;
37847;SDS011;23688;33.130;-117.188;2023-04-29T05:57:12;25.05;;;10.55;;
37847;SDS011;23688;33.130;-117.188;2023-04-29T05:59:38;26.45;;;10.00;;
37847;SDS011;23688;33.130;-117.188;2023-04-29T06:02:04;30.60;;;11.15;;
37847;SDS011;23688;33.130;-117.188;2023-04-29T06:04:31;18.15;;;8.57;;
37847;SDS011;23688;33.130;-117.188;2023-04-29T06:06:57;31.35;;;10.95;;
37847;SDS011;23688;33.130;-117.188;2023-04-29T06:09:23;20.23;;;8.65;;
37847;SDS011;23688;33.130;-117.188;2023-04-29T06:11:50;20.08;;;9.52;;
37847;SDS011;23688;33.130;-117.188;2023-04-29T06:14:17;23.63;;;10.20;;
37847;SDS011;23688;33.130;-117.188;2023-04-29T06:16:43;17.50;;;10.23;;
37847;SDS011;23688;33.130;-117.188;2023-04-29T06:19:09;24.45;;;11.30;;
37847;SDS011;23688;33.130;-117.188;2023-04-29T06:21:36;29.00;;;11.40;;
37847;SDS011;23688;33.130;-117.188;2023-04-29T06:24:02;25.88;;;11.20;;
37847;SDS011;23688;33.130;-117.188;2023-04-29T06:26:28;22.27;;;10.73;;
37847;SDS011;23688;33.130;-117.188;2023-04-29T06:28:54;28.25;;;11.32;;
37847;SDS011;23688;33.130;-117.188;2023-04-29T06:31:21;16.63;;;10.38;;
37847;SDS011;23688;33.130;-117.188;2023-04-29T06:33:47;26.60;;;10.63;;
37847;SDS011;23688;33.130;-117.188;2023-04-29T06:36:13;26.08;;;10.73;;
37847;SDS011;23688;33.130;-117.188;2023-04-29T06:38:40;28.23;;;10.38;;
37847;SDS011;23688;33.130;-117.188;2023-04-29T06:41:06;24.38;;;11.50;;
37847;SDS011;23688;33.130;-117.188;2023-04-29T06:43:32;23.92;;;11.38;;
37847;SDS011;23688;33.130;-117.188;2023-04-29T06:45:58;30.90;;;11.27;;
37847;SDS011;23688;33.130;-117.188;2023-04-29T06:48:25;23.77;;;10.00;;
37847;SDS011;23688;33.130;-117.188;2023-04-29T06:50:52;28.75;;;10.65;;
37847;SDS011;23688;33.130;-117.188;2023-04-29T06:53:20;23.50;;;12.05;;
37847;SDS011;23688;33.130;-117.188;2023-04-29T06:55:47;23.45;;;10.20;;
37847;SDS011;23688;33.130;-117.188;2023-04-29T06:58:14;20.63;;;11.52;;
37847;SDS011;23688;33.130;-117.188;2023-04-29T07:00:45;22.92;;;10.82;;
37847;SDS011;23688;33.130;-117.188;2023-04-29T07:03:12;21.05;;;8.68;;
37847;SDS011;23688;33.130;-117.188;2023-04-29T07:05:40;25.80;;;10.65;;
37847;SDS011;23688;33.130;-117.188;2023-04-29T07:08:07;24.13;;;11.15;;
37847;SDS011;23688;33.130;-117.188;2023-04-29T07:10:34;21.10;;;10.38;;
37847;SDS011;23688;33.130;-117.188;2023-04-29T07:13:00;22.65;;;9.95;;
37847;SDS011;23688;33.130;-117.188;2023-04-29T07:15:27;25.70;;;10.40;;
37847;SDS011;23688;33.130;-117.188;2023-04-29T07:17:54;25.65;;;11.60;;
37847;SDS011;23688;33.130;-117.188;2023-04-29T07:20:21;26.05;;;11.35;;
37847;SDS011;23688;33.130;-117.188;2023-04-29T07:22:47;21.95;;;9.07;;
37847;SDS011;23688;33.130;-117.188;2023-04-29T07:25:15;23.02;;;11.02;;
37847;SDS011;23688;33.130;-117.188;2023-04-29T07:27:41;25.48;;;11.52;;
37847;SDS011;23688;33.130;-117.188;2023-04-29T07:30:08;24.35;;;11.02;;
37847;SDS011;23688;33.130;-117.188;2023-04-29T07:32:34;27.48;;;13.15;;
37847;SDS011;23688;33.130;-117.188;2023-04-29T07:35:01;24.92;;;11.38;;
37847;SDS011;23688;33.130;-117.188;2023-04-29T07:37:28;27.27;;;12.43;;
37847;SDS011;23688;33.130;-117.188;2023-04-29T07:39:54;34.83;;;12.90;;
37847;SDS011;23688;33.130;-117.188;2023-04-29T07:42:20;27.55;;;12.82;;
37847;SDS011;23688;33.130;-117.188;2023-04-29T07:44:46;22.13;;;12.73;;
37847;SDS011;23688;33.130;-117.188;2023-04-29T07:47:13;29.25;;;13.63;;
37847;SDS011;23688;33.130;-117.188;2023-04-29T07:49:39;28.58;;;13.50;;
37847;SDS011;23688;33.130;-117.188;2023-04-29T07:52:06;34.63;;;12.13;;
37847;SDS011;23688;33.130;-117.188;2023-04-29T07:54:35;26.90;;;13.27;;
37847;SDS011;23688;33.130;-117.188;2023-04-29T07:57:02;30.27;;;13.43;;
37847;SDS011;23688;33.130;-117.188;2023-04-29T07:59:30;30.27;;;13.55;;
37847;SDS011;23688;33.130;-117.188;2023-04-29T08:01:56;27.77;;;14.20;;
37847;SDS011;23688;33.130;-117.188;2023-04-29T08:04:23;28.23;;;13.60;;
37847;SDS011;23688;33.130;-117.188;2023-04-29T08:06:49;28.23;;;13.35;;
37847;SDS011;23688;33.130;-117.188;2023-04-29T08:09:16;35.03;;;13.43;;
37847;SDS011;23688;33.130;-117.188;2023-04-29T08:11:42;28.52;;;13.43;;
37847;SDS011;23688;33.130;-117.188;2023-04-29T08:14:10;23.25;;;12.05;;
37847;SDS011;23688;33.130;-117.188;2023-04-29T08:16:36;27.05;;;13.32;;
37847;SDS011;23688;33.130;-117.188;2023-04-29T08:19:02;28.17;;;13.40;;
37847;SDS011;23688;33.130;-117.188;2023-04-29T08:21:28;27.38;;;13.00;;
37847;SDS011;23688;33.130;-117.188;2023-04-29T08:23:56;32.42;;;14.05;;
37847;SDS011;23688;33.130;-117.188;2023-04-29T08:26:23;33.55;;;13.88;;
37847;SDS011;23688;33.130;-117.188;2023-04-29T08:28:49;38.80;;;13.88;;
37847;SDS011;23688;33.130;-117.188;2023-04-29T08:31:19;32.63;;;14.15;;
37847;SDS011;23688;33.130;-117.188;2023-04-29T08:33:46;30.35;;;13.35;;
37847;SDS011;23688;33.130;-117.188;2023-04-29T08:36:13;25.48;;;13.00;;
37847;SDS011;23688;33.130;-117.188;2023-04-29T08:38:39;31.38;;;13.57;;
37847;SDS011;23688;33.130;-117.188;2023-04-29T08:41:09;29.88;;;12.45;;
37847;SDS011;23688;33.130;-117.188;2023-04-29T08:43:36;29.65;;;13.43;;
37847;SDS011;23688;33.130;-117.188;2023-04-29T08:46:04;31.73;;;13.70;;
37847;SDS011;23688;33.130;-117.188;2023-04-29T08:48:32;33.60;;;13.65;;
37847;SDS011;23688;33.130;-117.188;2023-04-29T08:51:01;26.83;;;12.73;;
37847;SDS011;23688;33.130;-117.188;2023-04-29T08:53:28;27.60;;;13.88;;
37847;SDS011;23688;33.130;-117.188;2023-04-29T08:55:54;33.92;;;14.68;;
37847;SDS011;23688;33.130;-117.188;2023-04-29T08:58:25;31.17;;;13.55;;
37847;SDS011;23688;33.130;-117.188;2023-04-29T09:03:32;22.40;;;12.30;;
37847;SDS011;23688;33.130;-117.188;2023-04-29T09:06:05;32.42;;;13.02;;
37847;SDS011;23688;33.130;-117.188;2023-04-29T09:08:35;34.17;;;13.65;;
37847;SDS011;23688;33.130;-117.188;2023-04-29T09:11:02;30.95;;;13.13;;
37847;SDS011;23688;33.130;-117.188;2023-04-29T09:13:32;31.65;;;13.20;;
37847;SDS011;23688;33.130;-117.188;2023-04-29T09:15:58;34.03;;;14.05;;
37847;SDS011;23688;33.130;-117.188;2023-04-29T09:18:44;30.60;;;14.50;;
37847;SDS011;23688;33.130;-117.188;2023-04-29T09:21:29;29.10;;;12.98;;
37847;SDS011;23688;33.130;-117.188;2023-04-29T09:23:58;34.30;;;15.77;;
37847;SDS011;23688;33.130;-117.188;2023-04-29T09:26:26;28.77;;;13.50;;
37847;SDS011;23688;33.130;-117.188;2023-04-29T09:29:08;30.58;;;14.88;;
37847;SDS011;23688;33.130;-117.188;2023-04-29T09:31:38;25.90;;;14.30;;
37847;SDS011;23688;33.130;-117.188;2023-04-29T09:34:05;25.15;;;13.10;;
37847;SDS011;23688;33.130;-117.188;2023-04-29T09:39:23;30.63;;;15.05;;
37847;SDS011;23688;33.130;-117.188;2023-04-29T09:44:20;34.45;;;14.43;;
37847;SDS011;23688;33.130;-117.188;2023-04-29T09:52:14;37.75;;;16.73;;
37847;SDS011;23688;33.130;-117.188;2023-04-29T09:54:42;39.20;;;17.42;;
37847;SDS011;23688;33.130;-117.188;2023-04-29T09:57:10;27.77;;;14.63;;
37847;SDS011;23688;33.130;-117.188;2023-04-29T09:59:41;32.03;;;15.30;;
37847;SDS011;23688;33.130;-117.188;2023-04-29T10:02:17;36.55;;;16.85;;
37847;SDS011;23688;33.130;-117.188;2023-04-29T10:04:44;35.13;;;16.48;;
37847;SDS011;23688;33.130;-117.188;2023-04-29T10:07:15;24.25;;;15.93;;
37847;SDS011;23688;33.130;-117.188;2023-04-29T10:09:49;31.30;;;15.52;;
37847;SDS011;23688;33.130;-117.188;2023-04-29T10:12:16;35.10;;;16.30;;
37847;SDS011;23688;33.130;-117.188;2023-04-29T10:14:49;31.95;;;16.50;;
37847;SDS011;23688;33.130;-117.188;2023-04-29T10:17:42;34.08;;;16.60;;
37847;SDS011;23688;33.130;-117.188;2023-04-29T10:20:14;30.00;;;14.75;;
37847;SDS011;23688;33.130;-117.188;2023-04-29T10:22:50;30.15;;;14.75;;
37847;SDS011;23688;33.130;-117.188;2023-04-29T10:25:19;23.83;;;15.07;;
37847;SDS011;23688;33.130;-117.188;2023-04-29T10:27:48;36.17;;;16.45;;
37847;SDS011;23688;33.130;-117.188;2023-04-29T10:30:19;27.05;;;15.35;;
37847;SDS011;23688;33.130;-117.188;2023-04-29T10:32:47;27.67;;;15.07;;
37847;SDS011;23688;33.130;-117.188;2023-04-29T10:37:47;28.88;;;15.50;;
37847;SDS011;23688;33.130;-117.188;2023-04-29T10:42:50;33.72;;;15.80;;
37847;SDS011;23688;33.130;-117.188;2023-04-29T10:45:18;27.33;;;15.88;;
37847;SDS011;23688;33.130;-117.188;2023-04-29T10:50:34;30.08;;;16.77;;
37847;SDS011;23688;33.130;-117.188;2023-04-29T10:53:00;40.15;;;17.10;;
37847;SDS011;23688;33.130;-117.188;2023-04-29T10:55:28;35.33;;;18.35;;
37847;SDS011;23688;33.130;-117.188;2023-04-29T10:57:55;45.40;;;18.23;;
37847;SDS011;23688;33.130;-117.188;2023-04-29T11:02:52;31.80;;;17.55;;
37847;SDS011;23688;33.130;-117.188;2023-04-29T11:05:36;35.58;;;18.00;;
37847;SDS011;23688;33.130;-117.188;2023-04-29T11:10:43;38.80;;;18.38;;
37847;SDS011;23688;33.130;-117.188;2023-04-29T11:13:25;35.25;;;19.58;;
37847;SDS011;23688;33.130;-117.188;2023-04-29T11:16:06;36.22;;;18.40;;
37847;SDS011;23688;33.130;-117.188;2023-04-29T11:18:34;37.75;;;19.52;;
37847;SDS011;23688;33.130;-117.188;2023-04-29T11:21:21;36.08;;;18.88;;
37847;SDS011;23688;33.130;-117.188;2023-04-29T11:23:48;45.88;;;19.45;;
37847;SDS011;23688;33.130;-117.188;2023-04-29T11:26:19;41.67;;;20.45;;
37847;SDS011;23688;33.130;-117.188;2023-04-29T11:28:46;47.97;;;20.45;;
37847;SDS011;23688;33.130;-117.188;2023-04-29T11:31:12;45.30;;;19.58;;
37847;SDS011;23688;33.130;-117.188;2023-04-29T11:33:39;36.90;;;21.75;;
37847;SDS011;23688;33.130;-117.188;2023-04-29T11:36:05;42.88;;;20.70;;
37847;SDS011;23688;33.130;-117.188;2023-04-29T11:38:32;44.33;;;21.50;;
37847;SDS011;23688;33.130;-117.188;2023-04-29T11:40:59;36.80;;;19.40;;
37847;SDS011;23688;33.130;-117.188;2023-04-29T11:43:25;36.78;;;18.60;;
37847;SDS011;23688;33.130;-117.188;2023-04-29T11:45:52;30.77;;;19.02;;
37847;SDS011;23688;33.130;-117.188;2023-04-29T11:48:22;37.75;;;16.92;;
37847;SDS011;23688;33.130;-117.188;2023-04-29T11:50:50;47.38;;;21.58;;
37847;SDS011;23688;33.130;-117.188;2023-04-29T11:53:26;38.58;;;20.92;;
37847;SDS011;23688;33.130;-117.188;2023-04-29T11:55:53;35.40;;;19.77;;
37847;SDS011;23688;33.130;-117.188;2023-04-29T11:58:23;36.58;;;20.90;;
37847;SDS011;23688;33.130;-117.188;2023-04-29T12:00:49;39.80;;;19.10;;
37847;SDS011;23688;33.130;-117.188;2023-04-29T12:03:19;36.28;;;20.13;;
37847;SDS011;23688;33.130;-117.188;2023-04-29T12:05:46;39.20;;;19.83;;
37847;SDS011;23688;33.130;-117.188;2023-04-29T12:08:13;40.73;;;19.93;;
37847;SDS011;23688;33.130;-117.188;2023-04-29T12:10:40;35.35;;;20.75;;
37847;SDS011;23688;33.130;-117.188;2023-04-29T12:13:06;36.97;;;21.60;;
37847;SDS011;23688;33.130;-117.188;2023-04-29T12:15:33;37.47;;;20.60;;
37847;SDS011;23688;33.130;-117.188;2023-04-29T12:17:59;41.75;;;23.25;;
37847;SDS011;23688;33.130;-117.188;2023-04-29T12:20:26;42.00;;;21.05;;
37847;SDS011;23688;33.130;-117.188;2023-04-29T12:22:53;52.72;;;23.83;;
37847;SDS011;23688;33.130;-117.188;2023-04-29T12:25:24;48.42;;;25.77;;
37847;SDS011;23688;33.130;-117.188;2023-04-29T12:27:58;53.83;;;24.40;;
37847;SDS011;23688;33.130;-117.188;2023-04-29T12:30:24;48.65;;;24.27;;
37847;SDS011;23688;33.130;-117.188;2023-04-29T12:32:51;52.13;;;23.90;;
37847;SDS011;23688;33.130;-117.188;2023-04-29T12:35:18;48.20;;;25.25;;
37847;SDS011;23688;33.130;-117.188;2023-04-29T12:37:49;44.35;;;24.45;;
37847;SDS011;23688;33.130;-117.188;2023-04-29T12:40:16;41.22;;;24.15;;
37847;SDS011;23688;33.130;-117.188;2023-04-29T12:42:44;52.08;;;24.40;;
37847;SDS011;23688;33.130;-117.188;2023-04-29T12:45:30;49.75;;;25.23;;
37847;SDS011;23688;33.130;-117.188;2023-04-29T12:47:57;40.75;;;26.00;;
37847;SDS011;23688;33.130;-117.188;2023-04-29T12:50:33;53.65;;;25.85;;
37847;SDS011;23688;33.130;-117.188;2023-04-29T12:53:02;44.90;;;24.70;;
37847;SDS011;23688;33.130;-117.188;2023-04-29T12:55:33;50.10;;;24.47;;
37847;SDS011;23688;33.130;-117.188;2023-04-29T12:58:00;47.72;;;23.00;;
37847;SDS011;23688;33.130;-117.188;2023-04-29T13:00:27;47.67;;;24.50;;
37847;SDS011;23688;33.130;-117.188;2023-04-29T13:02:54;48.30;;;23.75;;
37847;SDS011;23688;33.130;-117.188;2023-04-29T13:05:21;53.40;;;24.17;;
37847;SDS011;23688;33.130;-117.188;2023-04-29T13:07:47;47.08;;;23.70;;
37847;SDS011;23688;33.130;-117.188;2023-04-29T13:10:14;44.45;;;24.50;;
37847;SDS011;23688;33.130;-117.188;2023-04-29T13:12:40;41.28;;;22.42;;
37847;SDS011;23688;33.130;-117.188;2023-04-29T13:15:07;44.33;;;22.73;;
37847;SDS011;23688;33.130;-117.188;2023-04-29T13:20:24;44.42;;;22.88;;
37847;SDS011;23688;33.130;-117.188;2023-04-29T13:22:50;40.80;;;23.13;;
37847;SDS011;23688;33.130;-117.188;2023-04-29T13:25:17;35.95;;;20.40;;
37847;SDS011;23688;33.130;-117.188;2023-04-29T13:27:43;39.50;;;21.20;;
37847;SDS011;23688;33.130;-117.188;2023-04-29T13:30:10;40.75;;;23.45;;
37847;SDS011;23688;33.130;-117.188;2023-04-29T13:32:36;45.15;;;23.50;;
37847;SDS011;23688;33.130;-117.188;2023-04-29T13:35:05;50.38;;;24.33;;
37847;SDS011;23688;33.130;-117.188;2023-04-29T13:37:32;45.90;;;24.50;;
37847;SDS011;23688;33.130;-117.188;2023-04-29T13:39:58;45.15;;;22.75;;
37847;SDS011;23688;33.130;-117.188;2023-04-29T13:42:25;45.38;;;23.45;;
37847;SDS011;23688;33.130;-117.188;2023-04-29T13:44:51;44.28;;;22.60;;
37847;SDS011;23688;33.130;-117.188;2023-04-29T13:47:21;53.33;;;24.63;;
37847;SDS011;23688;33.130;-117.188;2023-04-29T13:49:48;53.72;;;25.17;;
37847;SDS011;23688;33.130;-117.188;2023-04-29T13:52:14;43.97;;;23.15;;
37847;SDS011;23688;33.130;-117.188;2023-04-29T13:54:41;39.78;;;23.48;;
37847;SDS011;23688;33.130;-117.188;2023-04-29T13:57:07;49.30;;;22.65;;
37847;SDS011;23688;33.130;-117.188;2023-04-29T13:59:34;40.45;;;23.83;;
37847;SDS011;23688;33.130;-117.188;2023-04-29T14:02:00;55.53;;;26.35;;
37847;SDS011;23688;33.130;-117.188;2023-04-29T14:04:27;46.75;;;24.42;;
37847;SDS011;23688;33.130;-117.188;2023-04-29T14:06:54;50.13;;;25.15;;
37847;SDS011;23688;33.130;-117.188;2023-04-29T14:09:22;46.92;;;24.70;;
37847;SDS011;23688;33.130;-117.188;2023-04-29T14:11:48;49.25;;;25.85;;
37847;SDS011;23688;33.130;-117.188;2023-04-29T14:14:15;39.70;;;23.73;;
37847;SDS011;23688;33.130;-117.188;2023-04-29T14:16:42;50.17;;;24.65;;
37847;SDS011;23688;33.130;-117.188;2023-04-29T14:19:08;47.05;;;25.20;;
37847;SDS011;23688;33.130;-117.188;2023-04-29T14:21:35;46.08;;;24.40;;
37847;SDS011;23688;33.130;-117.188;2023-04-29T14:24:04;51.13;;;27.02;;
37847;SDS011;23688;33.130;-117.188;2023-04-29T14:26:30;42.65;;;25.75;;
37847;SDS011;23688;33.130;-117.188;2023-04-29T14:28:57;54.63;;;27.13;;
37847;SDS011;23688;33.130;-117.188;2023-04-29T14:31:27;48.85;;;26.38;;
37847;SDS011;23688;33.130;-117.188;2023-04-29T14:33:55;54.92;;;25.67;;
37847;SDS011;23688;33.130;-117.188;2023-04-29T14:36:22;38.65;;;23.92;;
37847;SDS011;23688;33.130;-117.188;2023-04-29T14:38:49;42.33;;;23.85;;
37847;SDS011;23688;33.130;-117.188;2023-04-29T14:41:15;43.30;;;23.80;;